createdAt,value
2022-11-26T00:02:30.657Z,43.67
2022-11-26T00:05:00.021Z,45.15
2022-11-26T00:07:30.628Z,44.00
2022-11-26T00:09:59.681Z,44.30
2022-11-26T00:12:33.829Z,45.63
2022-11-26T00:15:16.445Z,44.10
2022-11-26T00:17:44.066Z,44.63
2022-11-26T00:20:12.443Z,44.40
2022-11-26T00:22:55.725Z,44.38
2022-11-26T00:25:27.691Z,41.95
2022-11-26T00:27:58.418Z,42.80
2022-11-26T00:30:28.187Z,45.55
2022-11-26T00:32:56.230Z,43.83
2022-11-26T00:35:23.764Z,42.00
2022-11-26T00:37:57.976Z,41.60
2022-11-26T00:40:32.760Z,43.05
2022-11-26T00:43:02.039Z,43.95
2022-11-26T00:45:31.533Z,45.05
2022-11-26T00:48:01.895Z,46.25
2022-11-26T00:50:39.007Z,49.35
2022-11-26T00:53:08.335Z,52.22
2022-11-26T00:55:41.911Z,55.17
2022-11-26T00:58:26.895Z,51.50
2022-11-26T01:00:57.334Z,51.15
2022-11-26T01:03:26.490Z,51.65
2022-11-26T01:05:58.358Z,49.25
2022-11-26T01:08:35.789Z,47.92
2022-11-26T01:11:05.123Z,45.10
2022-11-26T01:13:33.635Z,46.72
2022-11-26T01:16:07.006Z,44.50
2022-11-26T01:18:35.936Z,41.03
2022-11-26T01:21:03.129Z,44.20
2022-11-26T01:23:30.589Z,44.60
2022-11-26T01:25:58.994Z,40.28
2022-11-26T01:28:28.951Z,39.80
2022-11-26T01:30:56.070Z,41.22
2022-11-26T01:33:23.556Z,36.40
2022-11-26T01:35:50.765Z,37.67
2022-11-26T01:38:18.523Z,37.60
2022-11-26T01:41:09.625Z,37.38
2022-11-26T01:43:43.443Z,40.95
2022-11-26T01:46:22.445Z,37.50
2022-11-26T01:48:51.080Z,38.00
2022-11-26T01:51:29.258Z,41.40
2022-11-26T01:54:01.135Z,40.95
2022-11-26T01:56:38.162Z,39.45
2022-11-26T01:59:18.583Z,38.38
2022-11-26T02:01:47.559Z,42.58
2022-11-26T02:04:41.086Z,46.55
2022-11-26T02:07:08.487Z,52.10
2022-11-26T02:09:36.495Z,53.35
2022-11-26T02:12:04.114Z,54.95
2022-11-26T02:14:37.104Z,50.05
2022-11-26T02:17:45.788Z,50.03
2022-11-26T02:20:51.038Z,50.03
2022-11-26T02:24:17.062Z,45.88
2022-11-26T02:27:22.271Z,46.88
2022-11-26T02:30:11.284Z,51.15
2022-11-26T02:32:48.258Z,49.22
2022-11-26T02:35:37.417Z,49.03
2022-11-26T02:38:15.421Z,46.50
2022-11-26T02:40:42.593Z,50.63
2022-11-26T02:43:10.726Z,51.13
2022-11-26T02:45:42.622Z,53.53
2022-11-26T02:48:22.322Z,48.72
2022-11-26T02:50:59.751Z,51.22
2022-11-26T02:53:32.190Z,51.72
2022-11-26T02:56:17.367Z,50.58
2022-11-26T02:58:45.815Z,43.72
2022-11-26T03:01:49.785Z,47.22
2022-11-26T03:04:24.607Z,45.42
2022-11-26T03:06:58.318Z,47.78
2022-11-26T03:09:25.786Z,44.55
2022-11-26T03:11:53.133Z,45.92
2022-11-26T03:14:20.671Z,48.78
2022-11-26T03:16:47.898Z,45.83
2022-11-26T03:19:15.461Z,49.55
2022-11-26T03:21:42.648Z,51.72
2022-11-26T03:24:10.127Z,50.28
2022-11-26T03:26:37.356Z,51.58
2022-11-26T03:29:04.901Z,49.00
2022-11-26T03:31:32.211Z,48.70
2022-11-26T03:33:59.849Z,50.92
2022-11-26T03:36:27.058Z,51.53
2022-11-26T03:38:54.600Z,45.80
2022-11-26T03:41:21.844Z,47.70
2022-11-26T03:43:49.424Z,44.50
2022-11-26T03:46:16.747Z,42.95
2022-11-26T03:48:44.374Z,44.40
2022-11-26T03:51:11.668Z,45.17
2022-11-26T03:53:39.321Z,47.97
2022-11-26T03:56:07.149Z,44.88
2022-11-26T03:58:35.808Z,47.20
2022-11-26T04:01:12.502Z,50.05
2022-11-26T04:03:41.196Z,48.05
2022-11-26T04:06:10.134Z,51.30
2022-11-26T04:08:37.613Z,54.10
2022-11-26T04:11:04.893Z,52.63
2022-11-26T04:13:32.356Z,51.35
2022-11-26T04:15:59.540Z,49.92
2022-11-26T04:18:26.966Z,50.90
2022-11-26T04:20:54.141Z,49.22
2022-11-26T04:23:21.704Z,51.20
2022-11-26T04:25:48.920Z,54.15
2022-11-26T04:28:16.477Z,54.72
2022-11-26T04:30:44.079Z,55.85
2022-11-26T04:33:11.850Z,50.75
2022-11-26T04:35:39.223Z,50.90
2022-11-26T04:38:06.769Z,49.60
2022-11-26T04:40:33.949Z,44.70
2022-11-26T04:43:01.503Z,43.08
2022-11-26T04:45:28.737Z,41.55
2022-11-26T04:47:56.259Z,39.95
2022-11-26T04:50:24.195Z,40.38
2022-11-26T04:52:51.743Z,41.05
2022-11-26T04:55:19.037Z,38.25
2022-11-26T04:57:48.691Z,39.38
2022-11-26T05:00:18.404Z,37.65
2022-11-26T05:02:46.336Z,41.33
2022-11-26T05:05:13.881Z,37.47
2022-11-26T05:07:41.401Z,41.08
2022-11-26T05:10:10.117Z,46.15
2022-11-26T05:12:37.909Z,42.35
2022-11-26T05:15:05.757Z,40.03
2022-11-26T05:17:33.589Z,43.63
2022-11-26T05:20:00.895Z,39.78
2022-11-26T05:22:28.405Z,43.00
2022-11-26T05:24:55.609Z,42.33
2022-11-26T05:27:23.118Z,37.80
2022-11-26T05:29:50.373Z,42.45
2022-11-26T05:32:18.135Z,37.08
2022-11-26T05:34:45.385Z,43.95
2022-11-26T05:37:12.946Z,38.70
2022-11-26T05:39:40.144Z,49.83
2022-11-26T05:42:09.320Z,49.63
2022-11-26T05:44:38.041Z,42.20
2022-11-26T05:47:05.951Z,44.35
2022-11-26T05:49:33.185Z,45.10
2022-11-26T05:52:00.691Z,46.28
2022-11-26T05:54:27.876Z,42.00
2022-11-26T05:56:59.869Z,44.63
2022-11-26T05:59:28.317Z,45.65
2022-11-26T06:01:56.229Z,45.20
2022-11-26T06:04:23.530Z,45.17
2022-11-26T06:06:51.041Z,41.92
2022-11-26T06:09:18.177Z,43.97
2022-11-26T06:11:45.725Z,40.95
2022-11-26T06:14:12.911Z,44.83
2022-11-26T06:16:40.425Z,39.97
2022-11-26T06:19:07.706Z,41.85
2022-11-26T06:21:35.209Z,42.88
2022-11-26T06:24:02.414Z,43.15
2022-11-26T06:26:29.879Z,36.70
2022-11-26T06:28:57.161Z,37.50
2022-11-26T06:31:24.696Z,36.83
2022-11-26T06:33:56.289Z,39.05
2022-11-26T06:36:24.749Z,41.60
2022-11-26T06:38:51.972Z,40.60
2022-11-26T06:41:19.771Z,38.83
2022-11-26T06:43:46.919Z,37.25
2022-11-26T06:46:14.504Z,38.38
2022-11-26T06:48:41.900Z,38.97
2022-11-26T06:51:16.017Z,36.53
2022-11-26T06:53:43.608Z,37.83
2022-11-26T06:56:18.497Z,36.05
2022-11-26T06:58:55.095Z,35.55
2022-11-26T07:01:26.079Z,35.25
2022-11-26T07:03:55.146Z,34.67
2022-11-26T07:06:30.156Z,36.70
2022-11-26T07:09:02.117Z,33.80
2022-11-26T07:11:29.982Z,39.28
2022-11-26T07:13:57.524Z,37.28
2022-11-26T07:16:25.513Z,38.28
2022-11-26T07:19:02.177Z,41.42
2022-11-26T07:21:30.480Z,44.63
2022-11-26T07:23:58.568Z,48.38
2022-11-26T07:26:26.156Z,45.10
2022-11-26T07:28:54.173Z,43.15
2022-11-26T07:31:23.675Z,42.20
2022-11-26T07:33:51.824Z,42.83
2022-11-26T07:36:24.028Z,42.42
2022-11-26T07:38:54.822Z,43.47
2022-11-26T07:41:23.293Z,43.75
2022-11-26T07:43:50.746Z,38.78
2022-11-26T07:46:23.767Z,40.03
2022-11-26T07:48:51.668Z,35.90
2022-11-26T07:51:24.021Z,38.03
2022-11-26T07:53:52.320Z,35.05
2022-11-26T07:56:21.099Z,35.67
2022-11-26T07:58:48.532Z,33.15
2022-11-26T08:01:23.187Z,31.77
2022-11-26T08:03:51.976Z,31.58
2022-11-26T08:06:23.835Z,30.50
2022-11-26T08:08:51.482Z,32.08
2022-11-26T08:11:32.116Z,31.98
2022-11-26T08:14:02.822Z,32.60
2022-11-26T08:16:31.026Z,32.30
2022-11-26T08:19:02.781Z,33.85
2022-11-26T08:21:30.573Z,30.63
2022-11-26T08:23:58.540Z,30.70
2022-11-26T08:26:35.087Z,30.92
2022-11-26T08:29:03.633Z,27.83
2022-11-26T08:31:31.244Z,32.05
2022-11-26T08:34:01.012Z,29.35
2022-11-26T08:36:30.353Z,29.23
2022-11-26T08:38:58.887Z,27.60
2022-11-26T08:41:27.173Z,30.02
2022-11-26T08:44:09.916Z,26.98
2022-11-26T08:46:42.847Z,28.92
2022-11-26T08:49:13.243Z,30.00
2022-11-26T08:51:41.518Z,36.05
2022-11-26T08:54:09.011Z,35.78
2022-11-26T08:56:37.652Z,41.03
2022-11-26T08:59:04.941Z,50.15
2022-11-26T09:01:34.162Z,49.05
2022-11-26T09:04:04.286Z,50.15
2022-11-26T09:06:37.205Z,52.28
2022-11-26T09:09:15.671Z,54.00
2022-11-26T09:11:57.633Z,54.53
2022-11-26T09:14:31.559Z,56.65
2022-11-26T09:16:59.329Z,54.53
2022-11-26T09:19:28.846Z,47.47
2022-11-26T09:21:56.700Z,53.90
2022-11-26T09:24:24.181Z,45.65
2022-11-26T09:26:52.839Z,48.42
2022-11-26T09:29:23.049Z,48.95
2022-11-26T09:34:39.075Z,47.28
2022-11-26T09:37:07.278Z,45.45
2022-11-26T09:39:34.586Z,46.35
2022-11-26T09:42:28.764Z,46.35
2022-11-26T09:45:42.252Z,43.38
2022-11-26T09:48:25.230Z,44.47
2022-11-26T09:51:09.531Z,47.03
2022-11-26T09:53:45.864Z,41.00
2022-11-26T09:56:26.264Z,39.30
2022-11-26T09:59:04.008Z,39.10
2022-11-26T10:01:34.336Z,41.25
2022-11-26T10:04:01.956Z,34.58
2022-11-26T10:07:08.817Z,37.72
2022-11-26T10:10:12.360Z,38.33
2022-11-26T10:13:20.612Z,38.17
2022-11-26T10:16:28.090Z,44.22
2022-11-26T10:19:59.597Z,41.17
2022-11-26T10:22:36.467Z,38.70
2022-11-26T10:25:16.000Z,38.42
2022-11-26T10:27:43.679Z,37.75
2022-11-26T10:30:25.579Z,35.58
2022-11-26T10:32:56.316Z,32.10
2022-11-26T10:35:29.085Z,33.03
2022-11-26T10:37:58.335Z,34.55
2022-11-26T10:40:33.021Z,33.90
2022-11-26T10:43:08.538Z,31.67
2022-11-26T10:45:53.131Z,33.17
2022-11-26T10:48:27.043Z,32.75
2022-11-26T10:51:06.895Z,33.17
2022-11-26T10:54:01.420Z,32.58
2022-11-26T10:56:47.180Z,32.88
2022-11-26T10:59:44.974Z,30.17
2022-11-26T11:02:41.295Z,28.55
2022-11-26T11:05:10.182Z,27.70
2022-11-26T11:07:37.992Z,30.00
2022-11-26T11:10:08.501Z,29.00
2022-11-26T11:12:51.161Z,28.42
2022-11-26T11:15:24.587Z,30.00
2022-11-26T11:18:20.436Z,32.00
2022-11-26T11:21:05.139Z,33.53
2022-11-26T11:24:07.203Z,35.17
2022-11-26T11:26:26.897Z,34.58
2022-11-26T11:28:56.526Z,36.40
2022-11-26T11:31:26.812Z,38.90
2022-11-26T11:34:23.888Z,38.75
2022-11-26T11:37:15.173Z,37.83
2022-11-26T11:39:44.158Z,35.00
2022-11-26T11:42:32.376Z,33.40
2022-11-26T11:45:01.503Z,40.38
2022-11-26T11:47:42.972Z,34.70
2022-11-26T11:50:20.167Z,33.28
2022-11-26T11:53:15.247Z,32.72
2022-11-26T11:56:19.188Z,31.83
2022-11-26T11:59:21.588Z,32.15
2022-11-26T12:01:57.147Z,31.95
2022-11-26T12:04:55.287Z,32.45
2022-11-26T12:07:42.519Z,32.33
2022-11-26T12:10:33.894Z,32.58
2022-11-26T12:13:08.078Z,31.38
2022-11-26T12:15:53.838Z,31.17
2022-11-26T12:18:56.757Z,33.40
2022-11-26T12:21:54.576Z,34.90
2022-11-26T12:24:58.862Z,33.97
2022-11-26T12:27:36.227Z,32.20
2022-11-26T12:30:50.882Z,33.97
2022-11-26T12:33:43.756Z,31.90
2022-11-26T12:36:36.312Z,33.10
2022-11-26T12:39:19.127Z,33.15
2022-11-26T12:42:11.420Z,29.52
2022-11-26T12:44:42.354Z,30.85
2022-11-26T12:47:38.842Z,32.10
2022-11-26T12:50:44.543Z,30.50
2022-11-26T12:53:46.072Z,30.58
2022-11-26T12:56:23.836Z,29.90
2022-11-26T12:58:59.673Z,26.42
2022-11-26T13:01:28.272Z,29.60
2022-11-26T13:04:14.742Z,28.70
2022-11-26T13:07:13.765Z,29.70
2022-11-26T13:10:05.215Z,31.10
2022-11-26T13:12:51.148Z,32.42
2022-11-26T13:15:25.671Z,30.10
2022-11-26T13:17:54.673Z,28.02
2022-11-26T13:20:55.404Z,27.67
2022-11-26T13:23:44.260Z,28.00
2022-11-26T13:26:29.283Z,24.83
2022-11-26T13:29:04.036Z,24.27
2022-11-26T13:31:55.407Z,24.73
2022-11-26T13:34:45.957Z,26.88
2022-11-26T13:37:40.937Z,26.25
2022-11-26T13:40:43.386Z,27.25
2022-11-26T13:43:38.557Z,29.63
2022-11-26T13:46:13.846Z,24.20
2022-11-26T13:49:05.252Z,24.88
2022-11-26T13:52:03.447Z,25.45
2022-11-26T13:54:48.163Z,25.60
2022-11-26T13:57:24.624Z,24.95
2022-11-26T13:59:56.212Z,25.45
2022-11-26T14:02:36.913Z,24.13
2022-11-26T14:05:10.548Z,23.23
2022-11-26T14:07:38.244Z,23.30
2022-11-26T14:10:28.445Z,22.52
2022-11-26T14:13:07.510Z,23.73
2022-11-26T14:15:43.726Z,25.50
2022-11-26T14:18:14.815Z,31.13
2022-11-26T14:21:00.785Z,33.70
2022-11-26T14:23:47.785Z,32.17
2022-11-26T14:26:43.817Z,34.03
2022-11-26T14:29:17.566Z,36.67
2022-11-26T14:31:55.009Z,34.20
2022-11-26T14:34:57.474Z,35.05
2022-11-26T14:37:31.092Z,32.28
2022-11-26T14:40:19.447Z,32.20
2022-11-26T14:42:46.690Z,34.20
2022-11-26T14:45:20.806Z,33.75
2022-11-26T14:47:53.386Z,33.15
2022-11-26T14:50:25.303Z,32.53
2022-11-26T14:53:01.307Z,28.77
2022-11-26T14:55:31.614Z,29.23
2022-11-26T14:58:42.090Z,32.25
2022-11-26T15:01:15.482Z,31.30
2022-11-26T15:03:53.004Z,32.30
2022-11-26T15:06:37.729Z,33.00
2022-11-26T15:09:16.517Z,37.47
2022-11-26T15:12:07.538Z,41.92
2022-11-26T15:14:48.564Z,33.10
2022-11-26T15:17:23.756Z,32.85
2022-11-26T15:19:53.287Z,38.10
2022-11-26T15:22:47.824Z,38.53
2022-11-26T15:25:24.107Z,35.05
2022-11-26T15:28:20.142Z,30.77
2022-11-26T15:31:00.908Z,29.13
2022-11-26T15:33:32.275Z,31.10
2022-11-26T15:36:00.349Z,29.15
2022-11-26T15:38:31.474Z,29.40
2022-11-26T15:41:00.851Z,30.10
2022-11-26T15:43:44.714Z,32.47
2022-11-26T15:46:20.252Z,30.85
2022-11-26T15:48:54.039Z,31.70
2022-11-26T15:51:37.314Z,30.83
2022-11-26T15:54:43.472Z,32.10
2022-11-26T15:57:52.446Z,32.72
2022-11-26T16:00:36.461Z,31.58
2022-11-26T16:03:05.162Z,27.92
2022-11-26T16:05:39.870Z,31.02
2022-11-26T16:08:23.803Z,26.55
2022-11-26T16:10:57.444Z,33.85
2022-11-26T16:13:32.403Z,33.40
2022-11-26T16:16:28.310Z,32.60
2022-11-26T16:19:00.305Z,26.90
2022-11-26T16:21:34.653Z,27.75
2022-11-26T16:24:19.913Z,29.50
2022-11-26T16:27:05.672Z,26.95
2022-11-26T16:29:35.950Z,24.95
2022-11-26T16:32:03.695Z,21.20
2022-11-26T16:34:31.015Z,20.00
2022-11-26T16:37:22.569Z,20.10
2022-11-26T16:39:53.628Z,17.77
2022-11-26T16:42:23.809Z,18.52
2022-11-26T16:44:51.569Z,22.00
2022-11-26T16:47:36.354Z,25.23
2022-11-26T16:50:04.110Z,24.80
2022-11-26T16:52:36.101Z,26.95
2022-11-26T16:55:03.386Z,28.15
2022-11-26T16:57:31.023Z,26.92
2022-11-26T17:00:05.433Z,24.50
2022-11-26T17:02:33.601Z,23.05
2022-11-26T17:05:01.320Z,23.73
2022-11-26T17:07:42.832Z,24.88
2022-11-26T17:10:18.341Z,19.10
2022-11-26T17:12:46.414Z,26.60
2022-11-26T17:15:13.818Z,26.77
2022-11-26T17:17:41.758Z,26.27
2022-11-26T17:20:25.689Z,23.08
2022-11-26T17:22:53.646Z,26.25
2022-11-26T17:25:21.242Z,24.05
2022-11-26T17:27:48.933Z,27.73
2022-11-26T17:30:21.867Z,25.00
2022-11-26T17:32:50.891Z,30.00
2022-11-26T17:35:18.904Z,28.15
2022-11-26T17:37:46.777Z,27.95
2022-11-26T17:40:23.980Z,25.80
2022-11-26T17:42:51.971Z,24.23
2022-11-26T17:45:19.882Z,27.17
2022-11-26T17:47:47.753Z,28.30
2022-11-26T17:50:25.391Z,29.17
2022-11-26T17:52:53.309Z,34.03
2022-11-26T17:55:23.590Z,32.20
2022-11-26T17:57:52.012Z,33.78
2022-11-26T18:00:28.233Z,33.40
2022-11-26T18:02:57.101Z,32.05
2022-11-26T18:05:25.683Z,30.08
2022-11-26T18:07:53.381Z,31.38
2022-11-26T18:10:23.366Z,31.35
2022-11-26T18:12:54.312Z,29.92
2022-11-26T18:15:25.582Z,31.50
2022-11-26T18:17:55.499Z,31.42
2022-11-26T18:20:28.798Z,33.42
2022-11-26T18:23:00.830Z,33.00
2022-11-26T18:25:29.898Z,32.63
2022-11-26T18:27:57.431Z,33.65
2022-11-26T18:30:24.889Z,31.48
2022-11-26T18:32:52.619Z,32.53
2022-11-26T18:35:19.934Z,33.20
2022-11-26T18:37:47.502Z,34.15
2022-11-26T18:40:17.225Z,32.25
2022-11-26T18:42:45.860Z,30.95
2022-11-26T18:45:16.009Z,32.85
2022-11-26T18:47:43.715Z,32.22
2022-11-26T18:50:11.662Z,34.13
2022-11-26T18:52:39.972Z,37.47
2022-11-26T18:55:08.410Z,38.20
2022-11-26T18:57:36.749Z,37.42
2022-11-26T19:00:06.298Z,40.28
2022-11-26T19:02:37.081Z,37.10
2022-11-26T19:05:05.440Z,43.42
2022-11-26T19:07:33.620Z,44.53
2022-11-26T19:10:00.990Z,40.55
2022-11-26T19:12:28.542Z,41.83
2022-11-26T19:14:55.738Z,43.13
2022-11-26T19:17:23.395Z,41.63
2022-11-26T19:19:50.606Z,40.65
2022-11-26T19:22:18.088Z,37.05
2022-11-26T19:24:45.351Z,38.00
2022-11-26T19:27:13.703Z,35.33
2022-11-26T19:29:41.172Z,35.45
2022-11-26T19:32:08.924Z,33.15
2022-11-26T19:34:36.126Z,31.45
2022-11-26T19:37:03.631Z,33.72
2022-11-26T19:39:31.666Z,34.83
2022-11-26T19:41:59.985Z,33.53
2022-11-26T19:44:27.364Z,32.63
2022-11-26T19:46:54.914Z,30.60
2022-11-26T19:49:22.739Z,35.20
2022-11-26T19:51:50.285Z,38.42
2022-11-26T19:54:17.567Z,32.08
2022-11-26T19:56:46.045Z,33.70
2022-11-26T19:59:13.516Z,35.40
2022-11-26T20:01:42.298Z,38.08
2022-11-26T20:04:16.748Z,41.45
2022-11-26T20:06:44.610Z,38.47
2022-11-26T20:09:14.728Z,39.05
2022-11-26T20:11:42.894Z,37.15
2022-11-26T20:14:10.841Z,34.25
2022-11-26T20:16:43.273Z,37.97
2022-11-26T20:19:12.599Z,36.42
2022-11-26T20:21:40.264Z,39.10
2022-11-26T20:24:13.168Z,38.72
2022-11-26T20:26:43.470Z,36.60
2022-11-26T20:29:16.998Z,40.65
2022-11-26T20:31:48.514Z,42.30
2022-11-26T20:34:31.026Z,42.42
2022-11-26T20:36:58.638Z,45.17
2022-11-26T20:39:26.057Z,45.08
2022-11-26T20:41:53.630Z,43.60
2022-11-26T20:44:21.080Z,39.40
2022-11-26T20:46:48.728Z,35.47
2022-11-26T20:49:16.266Z,36.28
2022-11-26T20:51:43.869Z,34.33
2022-11-26T20:54:11.206Z,37.65
2022-11-26T20:56:38.773Z,35.10
2022-11-26T20:59:07.241Z,37.30
2022-11-26T21:01:40.293Z,36.83
2022-11-26T21:04:08.370Z,33.42
2022-11-26T21:06:36.288Z,37.50
2022-11-26T21:09:06.521Z,48.65
2022-11-26T21:11:35.299Z,45.17
2022-11-26T21:14:02.721Z,40.88
2022-11-26T21:16:31.329Z,38.35
2022-11-26T21:19:00.609Z,36.40
2022-11-26T21:21:29.285Z,31.80
2022-11-26T21:23:58.251Z,32.53
2022-11-26T21:26:27.115Z,32.72
2022-11-26T21:28:58.456Z,31.27
2022-11-26T21:31:29.753Z,34.55
2022-11-26T21:34:04.952Z,33.40
2022-11-26T21:36:35.415Z,34.22
2022-11-26T21:39:03.855Z,31.35
2022-11-26T21:41:33.603Z,31.00
2022-11-26T21:44:04.355Z,28.15
2022-11-26T21:46:38.177Z,26.00
2022-11-26T21:49:07.905Z,24.42
2022-11-26T21:51:35.879Z,26.85
2022-11-26T21:54:03.187Z,27.63
2022-11-26T21:56:32.545Z,28.95
2022-11-26T21:59:01.740Z,30.80
2022-11-26T22:01:33.359Z,29.63
2022-11-26T22:04:14.497Z,28.50
2022-11-26T22:06:44.477Z,29.48
2022-11-26T22:09:14.011Z,29.35
2022-11-26T22:11:44.438Z,28.08
2022-11-26T22:14:15.841Z,30.58
2022-11-26T22:16:43.799Z,28.67
2022-11-26T22:19:11.088Z,31.13
2022-11-26T22:21:41.737Z,29.35
2022-11-26T22:24:15.773Z,30.30
2022-11-26T22:26:44.417Z,26.67
2022-11-26T22:29:17.000Z,23.08
2022-11-26T22:31:44.955Z,21.42
2022-11-26T22:34:18.632Z,23.77
2022-11-26T22:36:46.916Z,21.55
2022-11-26T22:39:17.329Z,24.02
2022-11-26T22:41:47.101Z,26.45
2022-11-26T22:44:16.120Z,33.13
2022-11-26T22:46:44.840Z,28.90
2022-11-26T22:49:15.973Z,28.08
2022-11-26T22:51:43.924Z,23.38
2022-11-26T22:54:15.528Z,23.95
2022-11-26T22:56:43.026Z,27.58
2022-11-26T22:59:14.590Z,27.67
2022-11-26T23:01:42.168Z,25.00
2022-11-26T23:04:11.177Z,26.23
2022-11-26T23:06:39.637Z,27.45
2022-11-26T23:09:09.033Z,27.50
2022-11-26T23:11:40.822Z,27.45
2022-11-26T23:14:09.709Z,24.05
2022-11-26T23:16:40.513Z,24.90
2022-11-26T23:19:08.370Z,25.88
2022-11-26T23:21:40.248Z,25.13
2022-11-26T23:24:08.690Z,29.15
2022-11-26T23:26:39.112Z,25.20
2022-11-26T23:29:08.510Z,29.25
2022-11-26T23:31:41.286Z,27.70
2022-11-26T23:34:10.142Z,23.30
2022-11-26T23:36:38.364Z,22.27
2022-11-26T23:39:08.173Z,23.67
2022-11-26T23:41:36.453Z,20.92
2022-11-26T23:44:03.930Z,23.38
2022-11-26T23:46:35.377Z,21.45
2022-11-26T23:49:03.270Z,25.70
2022-11-26T23:51:32.999Z,26.55
2022-11-26T23:54:00.338Z,21.75
2022-11-26T23:56:32.139Z,24.17
2022-11-26T23:59:03.059Z,22.58
